createdAt,value
2023-01-28T00:01:52.839Z,8.37
2023-01-28T00:04:26.066Z,9.20
2023-01-28T00:06:53.902Z,10.27
2023-01-28T00:09:27.178Z,9.27
2023-01-28T00:11:53.826Z,12.33
2023-01-28T00:14:27.114Z,9.63
2023-01-28T00:16:53.895Z,8.63
2023-01-28T00:19:27.143Z,8.70
2023-01-28T00:21:53.929Z,8.50
2023-01-28T00:24:27.150Z,9.03
2023-01-28T00:27:00.151Z,8.13
2023-01-28T00:29:27.383Z,8.73
2023-01-28T00:32:00.271Z,9.17
2023-01-28T00:34:27.001Z,9.70
2023-01-28T00:37:06.071Z,8.63
2023-01-28T00:39:33.108Z,8.93
2023-01-28T00:42:06.221Z,8.90
2023-01-28T00:44:39.186Z,8.13
2023-01-28T00:47:12.296Z,7.70
2023-01-28T00:49:46.179Z,7.50
2023-01-28T00:52:13.450Z,6.70
2023-01-28T00:54:47.170Z,5.87
2023-01-28T00:57:14.179Z,6.33
2023-01-28T01:00:01.132Z,6.37
2023-01-28T01:02:27.991Z,5.70
2023-01-28T01:05:07.271Z,5.57
2023-01-28T01:07:41.931Z,5.73
2023-01-28T01:10:29.172Z,5.47
2023-01-28T01:12:58.333Z,5.47
2023-01-28T01:15:32.158Z,5.40
2023-01-28T01:18:06.156Z,5.57
2023-01-28T01:20:40.160Z,5.43
2023-01-28T01:23:07.029Z,5.97
2023-01-28T01:25:40.169Z,5.00
2023-01-28T01:28:13.189Z,5.10
2023-01-28T01:30:46.287Z,5.57
2023-01-28T01:33:20.196Z,5.60
2023-01-28T01:36:01.254Z,5.70
2023-01-28T01:38:31.461Z,5.73
2023-01-28T01:41:06.220Z,6.27
2023-01-28T01:43:47.285Z,6.20
2023-01-28T01:46:22.288Z,6.07
2023-01-28T01:48:56.284Z,6.67
2023-01-28T01:51:38.220Z,6.90
2023-01-28T01:54:12.139Z,7.37
2023-01-28T01:56:49.171Z,7.77
2023-01-28T01:59:28.251Z,9.80
2023-01-28T02:02:12.185Z,9.33
2023-01-28T02:04:51.183Z,10.77
2023-01-28T02:07:26.178Z,10.77
2023-01-28T02:09:59.100Z,11.07
2023-01-28T02:12:35.281Z,10.70
2023-01-28T02:15:13.337Z,10.50
2023-01-28T02:17:48.134Z,10.33
2023-01-28T02:20:28.121Z,11.40
2023-01-28T02:23:33.875Z,11.20
2023-01-28T02:26:41.145Z,11.47
2023-01-28T02:29:38.768Z,12.13
2023-01-28T02:32:29.136Z,12.60
2023-01-28T02:35:12.913Z,11.77
2023-01-28T02:38:07.148Z,12.77
2023-01-28T02:41:09.210Z,12.60
2023-01-28T02:43:39.062Z,13.13
2023-01-28T02:46:40.185Z,13.50
2023-01-28T02:49:22.397Z,13.67
2023-01-28T02:52:49.139Z,14.10
2023-01-28T02:55:30.811Z,13.83
2023-01-28T02:58:25.215Z,13.80
2023-01-28T03:01:47.314Z,14.47
2023-01-28T03:04:35.115Z,14.33
2023-01-28T03:07:07.759Z,14.03
2023-01-28T03:09:44.154Z,13.17
2023-01-28T03:12:39.237Z,13.23
2023-01-28T03:15:43.280Z,14.10
2023-01-28T03:18:30.677Z,13.70
2023-01-28T03:21:32.138Z,14.47
2023-01-28T03:24:50.540Z,14.93
2023-01-28T03:27:45.198Z,13.43
2023-01-28T03:30:52.025Z,12.67
2023-01-28T03:33:44.222Z,12.03
2023-01-28T03:36:37.247Z,12.40
2023-01-28T03:39:04.277Z,13.50
2023-01-28T03:41:37.116Z,12.30
2023-01-28T03:44:29.181Z,13.63
2023-01-28T03:46:55.909Z,13.30
2023-01-28T03:49:29.153Z,10.93
2023-01-28T03:51:55.791Z,10.63
2023-01-28T03:54:29.193Z,10.80
2023-01-28T03:57:02.235Z,11.10
2023-01-28T03:59:35.153Z,10.43
2023-01-28T04:02:11.135Z,11.57
2023-01-28T04:04:46.206Z,11.33
2023-01-28T04:07:17.023Z,11.17
2023-01-28T04:09:51.183Z,10.47
2023-01-28T04:12:18.816Z,11.00
2023-01-28T04:14:52.206Z,9.83
2023-01-28T04:17:18.959Z,9.53
2023-01-28T04:19:52.240Z,10.27
2023-01-28T04:22:18.953Z,9.83
2023-01-28T04:24:45.685Z,10.03
2023-01-28T04:27:19.129Z,10.20
2023-01-28T04:29:45.775Z,9.80
2023-01-28T04:32:19.158Z,9.47
2023-01-28T04:34:45.998Z,9.10
2023-01-28T04:37:19.225Z,9.13
2023-01-28T04:39:46.020Z,9.47
2023-01-28T04:42:19.232Z,9.43
2023-01-28T04:44:52.206Z,9.30
2023-01-28T04:47:26.209Z,9.53
2023-01-28T04:49:52.967Z,9.53
2023-01-28T04:52:26.267Z,9.00
2023-01-28T04:54:52.938Z,8.80
2023-01-28T04:57:26.207Z,10.23
2023-01-28T04:59:59.218Z,9.33
2023-01-28T05:02:39.226Z,9.67
2023-01-28T05:05:15.649Z,9.37
2023-01-28T05:07:42.635Z,9.27
2023-01-28T05:10:16.230Z,9.10
2023-01-28T05:12:44.919Z,8.50
2023-01-28T05:15:18.235Z,8.87
2023-01-28T05:17:45.500Z,9.10
2023-01-28T05:20:20.192Z,9.47
2023-01-28T05:22:53.185Z,8.70
2023-01-28T05:25:26.205Z,9.50
2023-01-28T05:27:59.235Z,8.90
2023-01-28T05:30:25.948Z,8.27
2023-01-28T05:33:02.276Z,8.90
2023-01-28T05:35:35.245Z,9.30
2023-01-28T05:38:08.289Z,9.33
2023-01-28T05:40:35.030Z,9.17
2023-01-28T05:43:08.188Z,9.07
2023-01-28T05:45:34.909Z,9.13
2023-01-28T05:48:08.234Z,9.57
2023-01-28T05:50:35.034Z,9.70
2023-01-28T05:53:08.242Z,10.17
2023-01-28T05:55:35.670Z,9.37
2023-01-28T05:58:02.373Z,9.70
2023-01-28T06:00:35.196Z,8.73
2023-01-28T06:03:08.496Z,9.47
2023-01-28T06:05:42.207Z,9.80
2023-01-28T06:08:08.989Z,9.20
2023-01-28T06:10:42.276Z,9.00
2023-01-28T06:13:15.737Z,8.93
2023-01-28T06:15:49.274Z,9.10
2023-01-28T06:18:15.965Z,8.80
2023-01-28T06:20:49.244Z,8.57
2023-01-28T06:23:16.292Z,9.83
2023-01-28T06:25:49.234Z,9.60
2023-01-28T06:28:16.339Z,9.73
2023-01-28T06:30:49.312Z,9.10
2023-01-28T06:33:16.114Z,8.93
2023-01-28T06:35:49.231Z,9.57
2023-01-28T06:38:16.075Z,9.27
2023-01-28T06:40:49.261Z,9.20
2023-01-28T06:43:22.265Z,9.17
2023-01-28T06:45:55.414Z,9.20
2023-01-28T06:48:29.264Z,10.03
2023-01-28T06:50:56.099Z,9.30
2023-01-28T06:53:29.271Z,9.37
2023-01-28T06:56:02.387Z,9.57
2023-01-28T06:58:35.257Z,8.60
2023-01-28T07:01:08.364Z,9.07
2023-01-28T07:03:41.215Z,9.47
2023-01-28T07:06:08.179Z,9.23
2023-01-28T07:08:41.285Z,9.17
2023-01-28T07:11:08.433Z,9.70
2023-01-28T07:13:42.213Z,9.53
2023-01-28T07:16:15.254Z,9.50
2023-01-28T07:18:41.945Z,10.23
2023-01-28T07:21:15.443Z,10.23
2023-01-28T07:23:42.246Z,10.03
2023-01-28T07:26:15.368Z,10.10
2023-01-28T07:28:42.224Z,10.27
2023-01-28T07:31:15.424Z,9.43
2023-01-28T07:33:42.140Z,9.37
2023-01-28T07:36:15.231Z,9.57
2023-01-28T07:38:48.268Z,9.60
2023-01-28T07:41:14.977Z,9.37
2023-01-28T07:43:48.272Z,9.60
2023-01-28T07:46:21.279Z,9.13
2023-01-28T07:48:54.217Z,9.83
2023-01-28T07:51:20.850Z,9.53
2023-01-28T07:53:54.284Z,9.10
2023-01-28T07:56:20.957Z,10.20
2023-01-28T07:58:57.241Z,9.93
2023-01-28T08:01:30.787Z,9.63
2023-01-28T08:04:04.521Z,9.57
2023-01-28T08:06:31.452Z,9.50
2023-01-28T08:09:04.353Z,9.67
2023-01-28T08:11:31.016Z,10.30
2023-01-28T08:14:04.389Z,10.43
2023-01-28T08:16:38.354Z,10.07
2023-01-28T08:19:11.241Z,10.17
2023-01-28T08:21:44.303Z,9.40
2023-01-28T08:24:17.331Z,9.20
2023-01-28T08:26:44.127Z,9.03
2023-01-28T08:29:17.375Z,8.83
2023-01-28T08:31:50.339Z,8.13
2023-01-28T08:34:17.019Z,8.10
2023-01-28T08:36:50.270Z,7.73
2023-01-28T08:39:17.059Z,7.57
2023-01-28T08:41:50.315Z,8.30
2023-01-28T08:44:17.105Z,7.87
2023-01-28T08:46:50.298Z,7.50
2023-01-28T08:49:16.979Z,7.77
2023-01-28T08:51:50.243Z,7.77
2023-01-28T08:54:23.305Z,7.50
2023-01-28T08:56:51.653Z,7.30
2023-01-28T08:59:25.284Z,7.93
2023-01-28T09:01:58.874Z,7.93
2023-01-28T09:04:32.319Z,7.77
2023-01-28T09:06:59.140Z,8.20
2023-01-28T09:09:32.324Z,8.30
2023-01-28T09:12:05.303Z,8.13
2023-01-28T09:14:38.302Z,7.97
2023-01-28T09:17:12.319Z,7.90
2023-01-28T09:19:39.055Z,7.87
2023-01-28T09:22:06.717Z,7.83
2023-01-28T09:24:40.273Z,8.43
2023-01-28T09:27:07.292Z,7.33
2023-01-28T09:29:41.324Z,8.13
2023-01-28T09:32:08.059Z,8.60
2023-01-28T09:34:41.315Z,8.00
2023-01-28T09:37:08.151Z,7.97
2023-01-28T09:39:41.311Z,7.80
2023-01-28T09:42:23.352Z,7.73
2023-01-28T09:45:24.374Z,7.37
2023-01-28T09:48:03.287Z,7.43
2023-01-28T09:50:36.152Z,8.40
2023-01-28T09:53:31.403Z,7.77
2023-01-28T09:56:11.313Z,8.20
2023-01-28T09:58:44.330Z,8.27
2023-01-28T10:01:42.395Z,7.73
2023-01-28T10:04:47.264Z,8.43
2023-01-28T10:07:32.434Z,8.07
2023-01-28T10:10:13.617Z,8.20
2023-01-28T10:12:47.301Z,8.77
2023-01-28T10:16:00.306Z,8.13
2023-01-28T10:18:33.576Z,8.27
2023-01-28T10:21:15.266Z,7.97
2023-01-28T10:23:51.467Z,8.30
2023-01-28T10:26:36.298Z,8.87
2023-01-28T10:29:25.338Z,7.83
2023-01-28T10:32:01.326Z,9.00
2023-01-28T10:34:27.986Z,9.47
2023-01-28T10:37:04.312Z,9.37
2023-01-28T10:39:31.180Z,9.47
2023-01-28T10:42:04.349Z,9.03
2023-01-28T10:44:49.335Z,9.40
2023-01-28T10:47:34.293Z,9.63
2023-01-28T10:50:02.162Z,8.67
2023-01-28T10:52:35.347Z,8.87
2023-01-28T10:55:13.347Z,9.20
2023-01-28T10:57:49.393Z,8.27
2023-01-28T11:00:40.512Z,8.13
2023-01-28T11:03:25.301Z,8.53
2023-01-28T11:06:00.418Z,7.70
2023-01-28T11:08:36.370Z,8.17
2023-01-28T11:11:13.662Z,7.77
2023-01-28T11:13:56.381Z,7.80
2023-01-28T11:16:23.057Z,8.03
2023-01-28T11:19:01.427Z,8.23
2023-01-28T11:21:31.502Z,8.03
2023-01-28T11:24:10.391Z,8.40
2023-01-28T11:26:39.901Z,8.47
2023-01-28T11:29:13.349Z,8.13
2023-01-28T11:31:44.191Z,8.70
2023-01-28T11:34:24.373Z,9.50
2023-01-28T11:37:14.271Z,7.83
2023-01-28T11:39:47.381Z,9.17
2023-01-28T11:42:19.271Z,8.90
2023-01-28T11:44:53.402Z,9.20
2023-01-28T11:47:36.405Z,8.23
2023-01-28T11:50:41.324Z,8.67
2023-01-28T11:53:31.370Z,8.83
2023-01-28T11:56:33.318Z,8.57
2023-01-28T11:59:15.392Z,8.30
2023-01-28T12:01:58.468Z,7.73
2023-01-28T12:04:40.380Z,8.07
2023-01-28T12:07:16.367Z,6.83
2023-01-28T12:10:18.609Z,7.28
2023-01-28T12:13:13.832Z,7.30
2023-01-28T12:16:23.380Z,7.25
2023-01-28T12:19:11.386Z,6.90
2023-01-28T12:22:13.391Z,7.40
2023-01-28T12:25:11.461Z,7.03
2023-01-28T12:28:06.315Z,6.15
2023-01-28T12:31:02.432Z,7.13
2023-01-28T12:34:05.419Z,6.82
2023-01-28T12:36:34.695Z,6.55
2023-01-28T12:39:24.357Z,6.85
2023-01-28T12:42:09.344Z,6.10
2023-01-28T12:44:56.535Z,6.72
2023-01-28T12:47:29.774Z,7.20
2023-01-28T12:50:08.465Z,6.55
2023-01-28T12:52:40.999Z,6.07
2023-01-28T12:55:14.362Z,6.78
2023-01-28T12:57:41.989Z,6.82
2023-01-28T13:00:36.410Z,6.72
2023-01-28T13:03:26.406Z,6.57
2023-01-28T13:05:59.050Z,6.68
2023-01-28T13:08:34.386Z,6.63
2023-01-28T13:11:04.331Z,6.65
2023-01-28T13:13:43.423Z,6.32
2023-01-28T13:16:11.781Z,6.57
2023-01-28T13:18:50.375Z,6.60
2023-01-28T13:21:26.352Z,6.55
2023-01-28T13:24:08.429Z,7.28
2023-01-28T13:26:46.062Z,6.63
2023-01-28T13:29:22.516Z,6.43
2023-01-28T13:31:52.484Z,6.57
2023-01-28T13:34:43.420Z,7.03
2023-01-28T13:37:28.774Z,6.30
2023-01-28T13:40:10.379Z,6.00
2023-01-28T13:42:36.933Z,6.73
2023-01-28T13:45:22.421Z,8.27
2023-01-28T13:47:59.818Z,7.73
2023-01-28T13:50:44.359Z,7.85
2023-01-28T13:53:46.530Z,6.77
2023-01-28T13:56:28.431Z,7.60
2023-01-28T13:59:16.391Z,7.60
2023-01-28T14:02:08.401Z,7.80
2023-01-28T14:04:41.163Z,7.97
2023-01-28T14:07:45.501Z,7.77
2023-01-28T14:10:20.774Z,7.50
2023-01-28T14:13:01.511Z,8.10
2023-01-28T14:16:07.407Z,7.30
2023-01-28T14:18:49.463Z,8.13
2023-01-28T14:21:27.478Z,8.80
2023-01-28T14:24:03.448Z,7.80
2023-01-28T14:26:45.530Z,7.40
2023-01-28T14:29:40.437Z,8.30
2023-01-28T14:32:21.395Z,7.33
2023-01-28T14:34:55.504Z,8.57
2023-01-28T14:37:29.169Z,7.83
2023-01-28T14:40:14.882Z,8.20
2023-01-28T14:42:55.970Z,8.47
2023-01-28T14:45:29.468Z,7.80
2023-01-28T14:48:25.417Z,7.97
2023-01-28T14:51:17.432Z,7.90
2023-01-28T14:53:47.266Z,7.20
2023-01-28T14:56:40.811Z,7.43
2023-01-28T14:59:28.411Z,7.47
2023-01-28T15:02:04.389Z,7.87
2023-01-28T15:04:40.470Z,8.10
2023-01-28T15:07:21.735Z,8.23
2023-01-28T15:10:06.549Z,8.40
2023-01-28T15:12:44.435Z,8.10
2023-01-28T15:15:24.815Z,8.63
2023-01-28T15:17:59.429Z,8.53
2023-01-28T15:20:32.475Z,8.20
2023-01-28T15:23:07.551Z,8.97
2023-01-28T15:25:34.589Z,8.30
2023-01-28T15:28:02.081Z,8.73
2023-01-28T15:30:38.546Z,8.93
2023-01-28T15:33:19.574Z,8.50
2023-01-28T15:35:54.459Z,9.00
2023-01-28T15:38:28.427Z,8.23
2023-01-28T15:41:06.482Z,9.90
2023-01-28T15:43:45.514Z,8.97
2023-01-28T15:46:15.345Z,7.80
2023-01-28T15:48:52.437Z,9.13
2023-01-28T15:51:30.433Z,8.50
2023-01-28T15:54:00.776Z,8.93
2023-01-28T15:56:35.416Z,8.83
2023-01-28T15:59:27.512Z,9.37
2023-01-28T16:02:31.394Z,8.43
2023-01-28T16:05:10.662Z,8.30
2023-01-28T16:07:52.543Z,8.80
2023-01-28T16:10:24.187Z,9.00
2023-01-28T16:13:00.864Z,9.10
2023-01-28T16:15:27.832Z,9.20
2023-01-28T16:18:01.526Z,8.87
2023-01-28T16:20:30.438Z,9.10
2023-01-28T16:23:19.415Z,8.63
2023-01-28T16:25:46.093Z,10.53
2023-01-28T16:28:26.460Z,11.43
2023-01-28T16:30:53.201Z,11.70
2023-01-28T16:33:27.612Z,10.80
2023-01-28T16:36:08.036Z,12.87
2023-01-28T16:38:41.478Z,14.07
2023-01-28T16:41:38.119Z,12.60
2023-01-28T16:44:12.527Z,11.63
2023-01-28T16:46:40.210Z,10.63
2023-01-28T16:49:13.472Z,8.60
2023-01-28T16:51:50.495Z,9.50
2023-01-28T16:54:23.424Z,10.13
2023-01-28T16:57:13.483Z,10.13
2023-01-28T16:59:47.044Z,9.87
2023-01-28T17:02:29.504Z,9.33
2023-01-28T17:05:02.534Z,9.70
2023-01-28T17:07:35.565Z,9.73
2023-01-28T17:10:02.368Z,9.00
2023-01-28T17:12:35.460Z,9.90
2023-01-28T17:15:03.557Z,9.53
2023-01-28T17:17:36.579Z,9.60
2023-01-28T17:20:03.569Z,10.40
2023-01-28T17:22:36.566Z,9.47
2023-01-28T17:25:09.542Z,10.67
2023-01-28T17:27:36.360Z,10.80
2023-01-28T17:30:10.629Z,9.93
2023-01-28T17:32:37.350Z,10.53
2023-01-28T17:35:10.555Z,10.57
2023-01-28T17:37:38.459Z,10.77
2023-01-28T17:40:05.836Z,9.97
2023-01-28T17:42:39.548Z,10.10
2023-01-28T17:45:14.111Z,9.50
2023-01-28T17:47:47.509Z,10.23
2023-01-28T17:50:20.596Z,9.47
2023-01-28T17:52:53.531Z,10.63
2023-01-28T17:55:20.266Z,10.60
2023-01-28T17:57:53.623Z,10.77
2023-01-28T18:00:40.598Z,10.23
2023-01-28T18:03:13.462Z,9.97
2023-01-28T18:05:41.532Z,10.63
2023-01-28T18:08:15.452Z,10.53
2023-01-28T18:10:50.562Z,10.90
2023-01-28T18:13:23.545Z,10.87
2023-01-28T18:15:50.660Z,10.97
2023-01-28T18:18:23.496Z,11.00
2023-01-28T18:21:13.541Z,10.40
2023-01-28T18:23:46.655Z,10.80
2023-01-28T18:26:13.291Z,11.10
2023-01-28T18:28:46.690Z,11.90
2023-01-28T18:31:19.630Z,11.17
2023-01-28T18:33:47.546Z,12.17
2023-01-28T18:36:20.518Z,11.17
2023-01-28T18:38:47.308Z,12.13
2023-01-28T18:41:21.509Z,12.13
2023-01-28T18:43:54.582Z,11.47
2023-01-28T18:46:27.572Z,12.87
2023-01-28T18:49:03.548Z,12.80
2023-01-28T18:51:31.507Z,13.60
2023-01-28T18:54:08.814Z,14.07
2023-01-28T18:56:44.550Z,14.50
2023-01-28T18:59:19.586Z,14.17
2023-01-28T19:01:53.103Z,12.30
2023-01-28T19:04:26.561Z,13.50
2023-01-28T19:07:03.560Z,12.43
2023-01-28T19:09:36.642Z,12.20
2023-01-28T19:12:03.772Z,10.87
2023-01-28T19:14:37.589Z,11.67
2023-01-28T19:17:04.450Z,12.23
2023-01-28T19:19:37.536Z,11.80
2023-01-28T19:22:04.395Z,11.57
2023-01-28T19:24:37.672Z,12.37
2023-01-28T19:27:10.650Z,12.20
2023-01-28T19:29:43.609Z,11.77
2023-01-28T19:32:10.566Z,12.57
2023-01-28T19:34:37.230Z,11.97
2023-01-28T19:37:10.618Z,12.03
2023-01-28T19:39:37.619Z,12.30
2023-01-28T19:42:10.706Z,11.40
2023-01-28T19:44:37.460Z,12.00
2023-01-28T19:47:12.556Z,12.27
2023-01-28T19:49:39.330Z,11.60
2023-01-28T19:52:15.548Z,11.77
2023-01-28T19:54:42.434Z,12.40
2023-01-28T19:57:15.627Z,11.47
2023-01-28T19:59:48.646Z,11.80
2023-01-28T20:02:21.838Z,11.97
2023-01-28T20:05:00.861Z,11.67
2023-01-28T20:07:34.645Z,12.27
2023-01-28T20:10:01.339Z,11.93
2023-01-28T20:12:28.120Z,11.30
2023-01-28T20:15:01.643Z,12.60
2023-01-28T20:17:28.819Z,11.73
2023-01-28T20:20:02.565Z,12.10
2023-01-28T20:22:29.825Z,11.07
2023-01-28T20:25:03.743Z,12.50
2023-01-28T20:27:30.479Z,13.20
2023-01-28T20:30:03.588Z,13.00
2023-01-28T20:32:30.586Z,12.73
2023-01-28T20:35:03.577Z,11.77
2023-01-28T20:37:30.310Z,12.33
2023-01-28T20:40:03.630Z,12.07
2023-01-28T20:42:30.420Z,12.63
2023-01-28T20:44:57.109Z,13.27
2023-01-28T20:47:30.600Z,12.70
2023-01-28T20:49:57.476Z,12.47
2023-01-28T20:52:30.651Z,12.37
2023-01-28T20:55:03.677Z,12.00
2023-01-28T20:57:30.355Z,14.03
2023-01-28T21:00:03.666Z,12.93
2023-01-28T21:02:40.104Z,12.40
2023-01-28T21:05:13.731Z,12.83
2023-01-28T21:07:40.455Z,12.70
2023-01-28T21:10:14.702Z,13.57
2023-01-28T21:12:47.573Z,15.40
2023-01-28T21:15:20.525Z,13.47
2023-01-28T21:17:47.167Z,12.50
2023-01-28T21:20:20.631Z,13.27
2023-01-28T21:23:00.648Z,13.03
2023-01-28T21:25:27.358Z,13.43
2023-01-28T21:28:00.645Z,13.00
2023-01-28T21:30:27.282Z,13.03
2023-01-28T21:33:00.623Z,12.00
2023-01-28T21:35:27.275Z,12.37
2023-01-28T21:38:00.577Z,13.00
2023-01-28T21:40:27.422Z,13.10
2023-01-28T21:43:01.589Z,12.37
2023-01-28T21:45:28.500Z,14.27
2023-01-28T21:48:01.581Z,13.87
2023-01-28T21:50:28.269Z,12.07
2023-01-28T21:52:54.972Z,14.00
2023-01-28T21:55:28.629Z,13.47
2023-01-28T21:58:21.620Z,12.93
2023-01-28T22:00:54.576Z,12.60
2023-01-28T22:03:27.988Z,12.93
2023-01-28T22:06:02.645Z,13.70
2023-01-28T22:08:29.356Z,13.50
2023-01-28T22:11:03.627Z,12.77
2023-01-28T22:13:31.550Z,13.53
2023-01-28T22:16:04.670Z,14.10
2023-01-28T22:18:31.524Z,14.23
2023-01-28T22:21:09.630Z,13.93
2023-01-28T22:23:36.438Z,13.90
2023-01-28T22:26:09.625Z,13.87
2023-01-28T22:28:37.385Z,13.93
2023-01-28T22:31:15.732Z,12.73
2023-01-28T22:33:43.359Z,13.40
2023-01-28T22:36:21.595Z,13.80
2023-01-28T22:38:48.417Z,13.67
2023-01-28T22:41:29.610Z,12.67
2023-01-28T22:44:02.628Z,14.63
2023-01-28T22:46:29.803Z,14.20
2023-01-28T22:49:03.649Z,13.17
2023-01-28T22:51:32.440Z,13.43
2023-01-28T22:54:05.649Z,14.07
2023-01-28T22:56:32.385Z,15.23
2023-01-28T22:59:08.600Z,13.53
2023-01-28T23:01:48.655Z,15.03
2023-01-28T23:04:28.649Z,13.73
2023-01-28T23:06:55.611Z,15.03
2023-01-28T23:09:28.667Z,13.23
2023-01-28T23:11:55.503Z,14.83
2023-01-28T23:14:47.648Z,13.87
2023-01-28T23:17:32.889Z,13.17
2023-01-28T23:20:38.644Z,14.10
2023-01-28T23:23:30.631Z,14.03
2023-01-28T23:26:05.678Z,13.40
2023-01-28T23:28:33.488Z,13.43
2023-01-28T23:31:07.728Z,13.80
2023-01-28T23:33:37.089Z,14.10
2023-01-28T23:36:10.695Z,14.00
2023-01-28T23:38:43.686Z,15.27
2023-01-28T23:41:10.374Z,15.03
2023-01-28T23:43:43.605Z,14.70
2023-01-28T23:46:17.992Z,15.80
2023-01-28T23:48:44.850Z,14.60
2023-01-28T23:51:11.559Z,14.90
2023-01-28T23:53:44.699Z,14.57
2023-01-28T23:56:11.462Z,14.07
2023-01-28T23:58:44.638Z,13.30
